Alexandria, Pennsylvania
Current Conditions -  °F | °C
As of 12:53 PM on Thursday 30 Oct 2014 (Local Time) from KAOO Reporting Station
Overcast Overcast  
Wind Chill: 44°   Ceiling: 4400
Heat Index: 48°   Visibility: 10mi
Dew Point: 36°   Wind: 9mph
Humidity: 63%   Direction: 310°NW
Pressure: 30.06"   Gusts: NA
Location:  40.56°N, 78.1°W
Report Text: KAOO 301653Z AUTO 31008KT 10SM SCT034 OVC044 09/02 A3006 RMK AO2 SLP184 T00890022
Loading
Personal Weather Stations






























Interactive Weather Map New forecast layout! Learn more

10-Day Weather Forecast

Advertisements
Track Severe Weather on mobile